createdAt,value
2023-10-19T00:00:37.670Z,7.57
2023-10-19T00:01:37.749Z,7.56
2023-10-19T00:02:37.659Z,7.56
2023-10-19T00:03:37.681Z,7.55
2023-10-19T00:04:37.648Z,7.55
2023-10-19T00:05:38.699Z,7.55
2023-10-19T00:06:37.876Z,7.55
2023-10-19T00:07:37.673Z,7.54
2023-10-19T00:08:37.622Z,7.54
2023-10-19T00:09:37.545Z,7.53
2023-10-19T00:10:37.582Z,7.53
2023-10-19T00:11:37.547Z,7.52
2023-10-19T00:12:37.549Z,7.52
2023-10-19T00:13:37.547Z,7.52
2023-10-19T00:14:37.500Z,7.52
2023-10-19T00:15:38.700Z,7.52
2023-10-19T00:16:37.595Z,7.53
2023-10-19T00:17:37.468Z,7.54
2023-10-19T00:18:37.477Z,7.54
2023-10-19T00:19:37.460Z,7.54
2023-10-19T00:20:37.426Z,7.55
2023-10-19T00:21:37.486Z,7.55
2023-10-19T00:22:37.437Z,7.56
2023-10-19T00:23:37.398Z,7.57
2023-10-19T00:24:37.483Z,7.58
2023-10-19T00:25:37.506Z,7.58
2023-10-19T00:26:37.402Z,7.58
2023-10-19T00:27:37.437Z,7.58
2023-10-19T00:28:37.392Z,7.59
2023-10-19T00:29:37.345Z,7.59
2023-10-19T00:30:37.304Z,7.59
2023-10-19T00:31:37.491Z,7.59
2023-10-19T00:32:37.324Z,7.60
2023-10-19T00:33:37.340Z,7.61
2023-10-19T00:34:37.388Z,7.61
2023-10-19T00:35:37.287Z,7.62
2023-10-19T00:36:37.273Z,7.62
2023-10-19T00:37:37.259Z,7.62
2023-10-19T00:38:37.229Z,7.63
2023-10-19T00:39:37.261Z,7.63
2023-10-19T00:40:37.242Z,7.63
2023-10-19T00:41:37.229Z,7.63
2023-10-19T00:42:37.182Z,7.63
2023-10-19T00:43:37.343Z,7.63
2023-10-19T00:44:37.171Z,7.63
2023-10-19T00:45:37.166Z,7.63
2023-10-19T00:46:37.210Z,7.63
2023-10-19T00:47:37.169Z,7.63
2023-10-19T00:48:37.117Z,7.63
2023-10-19T00:49:37.123Z,7.64
2023-10-19T00:50:37.163Z,7.64
2023-10-19T00:51:37.147Z,7.64
2023-10-19T00:52:38.735Z,7.64
2023-10-19T00:53:37.067Z,7.64
2023-10-19T00:54:37.059Z,7.64
2023-10-19T00:55:37.185Z,7.65
2023-10-19T00:56:37.089Z,7.65
2023-10-19T00:57:37.050Z,7.65
2023-10-19T00:58:37.064Z,7.65
2023-10-19T00:59:37.010Z,7.66
2023-10-19T01:00:36.985Z,7.66
2023-10-19T01:01:37.075Z,7.66
2023-10-19T01:02:37.034Z,7.66
2023-10-19T01:03:37.008Z,7.66
2023-10-19T01:04:37.118Z,7.67
2023-10-19T01:05:37.256Z,7.67
2023-10-19T01:06:37.015Z,7.68
2023-10-19T01:07:37.064Z,7.69
2023-10-19T01:08:36.968Z,7.70
2023-10-19T01:09:36.919Z,7.71
2023-10-19T01:10:36.947Z,7.71
2023-10-19T01:11:36.864Z,7.72
2023-10-19T01:12:36.861Z,7.72
2023-10-19T01:13:36.855Z,7.72
2023-10-19T01:14:36.841Z,7.73
2023-10-19T01:15:36.865Z,7.73
2023-10-19T01:16:36.947Z,7.73
2023-10-19T01:17:36.821Z,7.74
2023-10-19T01:18:36.825Z,7.75
2023-10-19T01:19:36.876Z,7.75
2023-10-19T01:20:36.767Z,7.76
2023-10-19T01:21:36.811Z,7.76
2023-10-19T01:22:36.864Z,7.77
2023-10-19T01:23:36.811Z,7.78
2023-10-19T01:24:36.725Z,7.79
2023-10-19T01:25:36.715Z,7.80
2023-10-19T01:26:36.755Z,7.81
2023-10-19T01:27:36.689Z,7.81
2023-10-19T01:28:36.710Z,7.81
2023-10-19T01:29:36.665Z,7.81
2023-10-19T01:30:36.650Z,7.81
2023-10-19T01:31:37.883Z,7.81
2023-10-19T01:32:36.699Z,7.81
2023-10-19T01:33:36.703Z,7.81
2023-10-19T01:34:36.743Z,7.81
2023-10-19T01:35:36.616Z,7.81
2023-10-19T01:36:36.586Z,7.81
2023-10-19T01:37:38.770Z,7.81
2023-10-19T01:38:36.594Z,7.81
2023-10-19T01:39:36.650Z,7.81
2023-10-19T01:40:36.665Z,7.82
2023-10-19T01:41:36.542Z,7.82
2023-10-19T01:42:36.565Z,7.83
2023-10-19T01:43:36.613Z,7.84
2023-10-19T01:44:36.513Z,7.84
2023-10-19T01:45:36.494Z,7.85
2023-10-19T01:46:36.798Z,7.85
2023-10-19T01:47:36.664Z,7.85
2023-10-19T01:48:36.606Z,7.86
2023-10-19T01:49:36.499Z,7.85
2023-10-19T01:50:36.443Z,7.85
2023-10-19T01:51:36.419Z,7.85
2023-10-19T01:52:36.463Z,7.84
2023-10-19T01:53:36.403Z,7.84
2023-10-19T01:54:36.494Z,7.84
2023-10-19T01:55:36.475Z,7.84
2023-10-19T01:56:36.395Z,7.84
2023-10-19T01:57:36.369Z,7.85
2023-10-19T01:58:36.462Z,7.85
2023-10-19T01:59:36.341Z,7.86
2023-10-19T02:00:36.450Z,7.86
2023-10-19T02:01:36.454Z,7.86
2023-10-19T02:02:36.422Z,7.86
2023-10-19T02:03:36.336Z,7.86
2023-10-19T02:04:36.358Z,7.86
2023-10-19T02:05:36.281Z,7.87
2023-10-19T02:06:36.409Z,7.88
2023-10-19T02:07:39.208Z,7.88
2023-10-19T02:08:36.243Z,7.89
2023-10-19T02:09:36.289Z,7.89
2023-10-19T02:10:36.266Z,7.89
2023-10-19T02:11:36.216Z,7.89
2023-10-19T02:12:36.266Z,7.89
2023-10-19T02:13:36.210Z,7.89
2023-10-19T02:14:36.239Z,7.89
2023-10-19T02:15:36.169Z,7.89
2023-10-19T02:16:36.248Z,7.89
2023-10-19T02:17:36.290Z,7.89
2023-10-19T02:18:36.357Z,7.90
2023-10-19T02:19:36.222Z,7.90
2023-10-19T02:20:41.103Z,7.90
2023-10-19T02:21:37.110Z,7.90
2023-10-19T02:22:36.086Z,7.90
2023-10-19T02:23:36.067Z,7.90
2023-10-19T02:24:36.141Z,7.91
2023-10-19T02:25:36.106Z,7.91
2023-10-19T02:26:36.136Z,7.91
2023-10-19T02:27:36.158Z,7.91
2023-10-19T02:28:36.083Z,7.92
2023-10-19T02:29:36.037Z,7.92
2023-10-19T02:30:36.148Z,7.92
2023-10-19T02:31:35.999Z,7.92
2023-10-19T02:32:36.415Z,7.92
2023-10-19T02:33:36.070Z,7.93
2023-10-19T02:34:36.093Z,7.94
2023-10-19T02:35:35.956Z,7.94
2023-10-19T02:36:35.951Z,7.94
2023-10-19T02:37:36.017Z,7.95
2023-10-19T02:38:35.982Z,7.95
2023-10-19T02:39:35.953Z,7.96
2023-10-19T02:40:36.029Z,7.96
2023-10-19T02:41:35.939Z,7.96
2023-10-19T02:42:35.860Z,7.97
2023-10-19T02:43:35.898Z,7.97
2023-10-19T02:44:35.879Z,7.98
2023-10-19T02:45:35.914Z,7.99
2023-10-19T02:46:35.889Z,8.00
2023-10-19T02:47:36.093Z,8.00
2023-10-19T02:48:36.084Z,8.01
2023-10-19T02:49:35.878Z,8.01
2023-10-19T02:50:35.922Z,8.01
2023-10-19T02:51:35.781Z,8.01
2023-10-19T02:52:35.829Z,8.01
2023-10-19T02:53:35.754Z,8.01
2023-10-19T02:54:36.452Z,8.01
2023-10-19T02:55:35.774Z,8.01
2023-10-19T02:56:35.775Z,8.01
2023-10-19T02:57:35.714Z,8.01
2023-10-19T02:58:35.735Z,8.01
2023-10-19T02:59:35.725Z,8.01
2023-10-19T03:00:35.732Z,8.01
2023-10-19T03:01:35.810Z,8.01
2023-10-19T03:02:35.745Z,8.02
2023-10-19T03:03:35.686Z,8.02
2023-10-19T03:04:35.685Z,8.01
2023-10-19T03:05:35.623Z,8.01
2023-10-19T03:06:35.685Z,8.00
2023-10-19T03:07:35.659Z,8.00
2023-10-19T03:08:36.715Z,8.00
2023-10-19T03:09:35.785Z,8.00
2023-10-19T03:10:35.697Z,8.00
2023-10-19T03:11:35.862Z,8.01
2023-10-19T03:12:35.568Z,8.01
2023-10-19T03:13:37.575Z,8.02
2023-10-19T03:14:35.541Z,8.02
2023-10-19T03:15:35.574Z,8.02
2023-10-19T03:16:35.606Z,8.02
2023-10-19T03:17:35.693Z,8.03
2023-10-19T03:18:35.491Z,8.03
2023-10-19T03:19:35.498Z,8.03
2023-10-19T03:20:35.454Z,8.03
2023-10-19T03:21:35.466Z,8.03
2023-10-19T03:22:35.484Z,8.04
2023-10-19T03:23:38.192Z,8.04
2023-10-19T03:24:35.411Z,8.05
2023-10-19T03:25:35.531Z,8.05
2023-10-19T03:26:35.385Z,8.05
2023-10-19T03:27:35.395Z,8.05
2023-10-19T03:28:35.422Z,8.04
2023-10-19T03:29:35.355Z,8.04
2023-10-19T03:30:35.338Z,8.04
2023-10-19T03:31:35.386Z,8.05
2023-10-19T03:32:35.402Z,8.05
2023-10-19T03:33:35.353Z,8.05
2023-10-19T03:34:37.393Z,8.06
2023-10-19T03:35:35.307Z,8.07
2023-10-19T03:36:35.327Z,8.07
2023-10-19T03:37:35.442Z,8.07
2023-10-19T03:38:35.247Z,8.08
2023-10-19T03:39:35.244Z,8.09
2023-10-19T03:40:35.247Z,8.10
2023-10-19T03:41:35.241Z,8.10
2023-10-19T03:42:35.289Z,8.10
2023-10-19T03:43:35.242Z,8.10
2023-10-19T03:44:35.180Z,8.10
2023-10-19T03:45:35.195Z,8.09
2023-10-19T03:46:35.301Z,8.09
2023-10-19T03:47:35.498Z,8.10
2023-10-19T03:48:35.142Z,8.11
2023-10-19T03:49:35.204Z,8.11
2023-10-19T03:50:35.182Z,8.12
2023-10-19T03:51:35.135Z,8.12
2023-10-19T03:52:35.148Z,8.12
2023-10-19T03:53:35.112Z,8.12
2023-10-19T03:54:35.142Z,8.12
2023-10-19T03:55:35.212Z,8.12
2023-10-19T03:56:35.065Z,8.13
2023-10-19T03:57:35.073Z,8.13
2023-10-19T03:58:35.121Z,8.13
2023-10-19T03:59:35.220Z,8.13
2023-10-19T04:00:35.240Z,8.13
2023-10-19T04:01:35.284Z,8.14
2023-10-19T04:02:35.160Z,8.14
2023-10-19T04:03:35.088Z,8.14
2023-10-19T04:04:35.278Z,8.14
2023-10-19T04:05:35.243Z,8.15
2023-10-19T04:06:34.970Z,8.16
2023-10-19T04:07:35.012Z,8.17
2023-10-19T04:08:34.958Z,8.18
2023-10-19T04:09:34.936Z,8.18
2023-10-19T04:10:35.020Z,8.17
2023-10-19T04:11:35.374Z,8.17
2023-10-19T04:12:34.984Z,8.16
2023-10-19T04:13:34.985Z,8.15
2023-10-19T04:14:34.897Z,8.15
2023-10-19T04:15:35.243Z,8.14
2023-10-19T04:16:35.045Z,8.15
2023-10-19T04:17:35.046Z,8.15
2023-10-19T04:18:34.935Z,8.15
2023-10-19T04:19:34.854Z,8.15
2023-10-19T04:20:34.810Z,8.14
2023-10-19T04:21:34.821Z,8.13
2023-10-19T04:22:34.977Z,8.11
2023-10-19T04:23:34.789Z,8.10
2023-10-19T04:24:34.786Z,8.10
2023-10-19T04:25:34.762Z,8.10
2023-10-19T04:26:34.755Z,8.11
2023-10-19T04:27:34.791Z,8.12
2023-10-19T04:28:34.725Z,8.13
2023-10-19T04:29:34.723Z,8.13
2023-10-19T04:30:34.798Z,8.14
2023-10-19T04:31:34.782Z,8.14
2023-10-19T04:32:34.687Z,8.14
2023-10-19T04:33:34.664Z,8.15
2023-10-19T04:34:34.862Z,8.16
2023-10-19T04:35:34.668Z,8.17
2023-10-19T04:36:34.658Z,8.18
2023-10-19T04:37:34.640Z,8.18
2023-10-19T04:38:34.647Z,8.19
2023-10-19T04:39:34.647Z,8.19
2023-10-19T04:40:34.599Z,8.20
2023-10-19T04:41:34.601Z,8.20
2023-10-19T04:42:34.566Z,8.21
2023-10-19T04:43:34.634Z,8.21
2023-10-19T04:44:34.594Z,8.22
2023-10-19T04:45:34.594Z,8.22
2023-10-19T04:46:34.730Z,8.23
2023-10-19T04:47:34.606Z,8.23
2023-10-19T04:48:34.530Z,8.24
2023-10-19T04:49:34.513Z,8.24
2023-10-19T04:50:34.524Z,8.24
2023-10-19T04:51:34.496Z,8.24
2023-10-19T04:52:34.501Z,8.25
2023-10-19T04:53:34.581Z,8.26
2023-10-19T04:54:34.443Z,8.26
2023-10-19T04:55:34.556Z,8.26
2023-10-19T04:56:34.445Z,8.26
2023-10-19T04:57:34.401Z,8.26
2023-10-19T04:58:34.434Z,8.26
2023-10-19T04:59:34.403Z,8.26
2023-10-19T05:00:34.377Z,8.26
2023-10-19T05:01:34.459Z,8.26
2023-10-19T05:02:34.541Z,8.27
2023-10-19T05:03:34.658Z,8.27
2023-10-19T05:04:34.753Z,8.28
2023-10-19T05:05:34.341Z,8.28
2023-10-19T05:06:34.426Z,8.29
2023-10-19T05:07:34.364Z,8.29
2023-10-19T05:08:34.589Z,8.29
2023-10-19T05:09:34.274Z,8.29
2023-10-19T05:10:34.304Z,8.29
2023-10-19T05:11:34.320Z,8.29
2023-10-19T05:12:34.349Z,8.30
2023-10-19T05:13:34.281Z,8.30
2023-10-19T05:14:34.354Z,8.30
2023-10-19T05:15:34.228Z,8.30
2023-10-19T05:16:34.404Z,8.30
2023-10-19T05:17:34.308Z,8.30
2023-10-19T05:18:34.178Z,8.30
2023-10-19T05:19:36.912Z,8.30
2023-10-19T05:20:34.270Z,8.30
2023-10-19T05:21:34.190Z,8.30
2023-10-19T05:22:34.326Z,8.29
2023-10-19T05:23:34.136Z,8.29
2023-10-19T05:24:34.131Z,8.29
2023-10-19T05:25:34.127Z,8.29
2023-10-19T05:26:34.106Z,8.29
2023-10-19T05:27:34.106Z,8.30
2023-10-19T05:28:34.120Z,8.30
2023-10-19T05:29:34.088Z,8.30
2023-10-19T05:30:34.150Z,8.30
2023-10-19T05:31:34.089Z,8.30
2023-10-19T05:32:34.214Z,8.30
2023-10-19T05:33:34.088Z,8.30
2023-10-19T05:34:34.290Z,8.30
2023-10-19T05:35:34.463Z,8.31
2023-10-19T05:36:34.042Z,8.30
2023-10-19T05:37:34.091Z,8.30
2023-10-19T05:38:33.997Z,8.30
2023-10-19T05:39:33.990Z,8.30
2023-10-19T05:40:33.975Z,8.30
2023-10-19T05:41:33.986Z,8.31
2023-10-19T05:42:33.913Z,8.31
2023-10-19T05:43:33.993Z,8.31
2023-10-19T05:44:34.092Z,8.31
2023-10-19T05:45:34.274Z,8.31
2023-10-19T05:46:33.964Z,8.31
2023-10-19T05:47:34.750Z,8.31
2023-10-19T05:48:33.864Z,8.31
2023-10-19T05:49:34.117Z,8.31
2023-10-19T05:50:33.816Z,8.32
2023-10-19T05:51:33.834Z,8.32
2023-10-19T05:52:33.858Z,8.32
2023-10-19T05:53:33.883Z,8.32
2023-10-19T05:54:34.007Z,8.33
2023-10-19T05:55:33.832Z,8.34
2023-10-19T05:56:33.770Z,8.34
2023-10-19T05:57:33.756Z,8.35
2023-10-19T05:58:33.781Z,8.35
2023-10-19T05:59:33.736Z,8.35
2023-10-19T06:00:33.771Z,8.35
2023-10-19T06:01:33.806Z,8.36
2023-10-19T06:02:34.213Z,8.36
2023-10-19T06:03:33.755Z,8.36
2023-10-19T06:04:34.160Z,8.36
2023-10-19T06:05:33.660Z,8.36
2023-10-19T06:06:33.637Z,8.36
2023-10-19T06:07:33.645Z,8.36
2023-10-19T06:08:33.697Z,8.37
2023-10-19T06:09:33.665Z,8.37
2023-10-19T06:10:33.636Z,8.37
2023-10-19T06:11:33.733Z,8.37
2023-10-19T06:12:33.576Z,8.37
2023-10-19T06:13:33.677Z,8.38
2023-10-19T06:14:33.717Z,8.38
2023-10-19T06:15:33.736Z,8.39
2023-10-19T06:16:33.977Z,8.40
2023-10-19T06:17:33.725Z,8.40
2023-10-19T06:18:33.640Z,8.41
2023-10-19T06:19:33.566Z,8.41
2023-10-19T06:20:33.593Z,8.41
2023-10-19T06:21:33.502Z,8.42
2023-10-19T06:22:33.506Z,8.43
2023-10-19T06:23:33.595Z,8.44
2023-10-19T06:24:33.485Z,8.44
2023-10-19T06:25:33.449Z,8.45
2023-10-19T06:26:33.473Z,8.45
2023-10-19T06:27:33.586Z,8.46
2023-10-19T06:28:33.440Z,8.46
2023-10-19T06:29:33.512Z,8.46
2023-10-19T06:30:33.387Z,8.46
2023-10-19T06:31:33.496Z,8.46
2023-10-19T06:32:33.530Z,8.46
2023-10-19T06:33:33.456Z,8.46
2023-10-19T06:34:33.732Z,8.46
2023-10-19T06:35:33.477Z,8.46
2023-10-19T06:36:34.542Z,8.47
2023-10-19T06:37:33.454Z,8.48
2023-10-19T06:38:33.311Z,8.48
2023-10-19T06:39:33.336Z,8.48
2023-10-19T06:40:33.354Z,8.48
2023-10-19T06:41:33.265Z,8.48
2023-10-19T06:42:33.285Z,8.48
2023-10-19T06:43:34.367Z,8.49
2023-10-19T06:44:33.613Z,8.50
2023-10-19T06:45:33.242Z,8.51
2023-10-19T06:46:33.271Z,8.51
2023-10-19T06:47:33.281Z,8.51
2023-10-19T06:48:33.224Z,8.51
2023-10-19T06:49:33.194Z,8.52
2023-10-19T06:50:33.297Z,8.52
2023-10-19T06:51:33.181Z,8.52
2023-10-19T06:52:33.198Z,8.53
2023-10-19T06:53:33.149Z,8.53
2023-10-19T06:54:33.365Z,8.54
2023-10-19T06:55:33.215Z,8.54
2023-10-19T06:56:33.111Z,8.55
2023-10-19T06:57:33.127Z,8.55
2023-10-19T06:58:33.172Z,8.55
2023-10-19T06:59:33.129Z,8.55
2023-10-19T07:00:33.061Z,8.55
2023-10-19T07:01:33.218Z,8.56
2023-10-19T07:02:33.152Z,8.56
2023-10-19T07:03:33.044Z,8.56
2023-10-19T07:04:33.282Z,8.57
2023-10-19T07:05:33.004Z,8.57
2023-10-19T07:06:33.037Z,8.58
2023-10-19T07:07:33.149Z,8.58
2023-10-19T07:08:32.998Z,8.59
2023-10-19T07:09:32.969Z,8.59
2023-10-19T07:10:32.999Z,8.59
2023-10-19T07:11:33.125Z,8.60
2023-10-19T07:12:32.913Z,8.61
2023-10-19T07:13:32.972Z,8.62
2023-10-19T07:14:33.011Z,8.63
2023-10-19T07:15:32.891Z,8.63
2023-10-19T07:16:32.976Z,8.64
2023-10-19T07:17:32.969Z,8.64
2023-10-19T07:18:32.877Z,8.65
2023-10-19T07:19:32.878Z,8.65
2023-10-19T07:20:32.877Z,8.65
2023-10-19T07:21:32.838Z,8.66
2023-10-19T07:22:32.834Z,8.66
2023-10-19T07:23:33.005Z,8.67
2023-10-19T07:24:32.973Z,8.67
2023-10-19T07:25:32.814Z,8.68
2023-10-19T07:26:32.787Z,8.68
2023-10-19T07:27:38.111Z,8.69
2023-10-19T07:28:35.577Z,8.70
2023-10-19T07:29:32.728Z,8.70
2023-10-19T07:30:32.728Z,8.71
2023-10-19T07:31:32.832Z,8.72
2023-10-19T07:32:32.782Z,8.72
2023-10-19T07:33:32.715Z,8.73
2023-10-19T07:34:32.988Z,8.73
2023-10-19T07:35:35.568Z,8.74
2023-10-19T07:36:32.666Z,8.75
2023-10-19T07:37:32.703Z,8.75
2023-10-19T07:38:32.661Z,8.76
2023-10-19T07:39:32.637Z,8.77
2023-10-19T07:40:32.660Z,8.77
2023-10-19T07:41:32.613Z,8.78
2023-10-19T07:42:32.626Z,8.79
2023-10-19T07:43:32.669Z,8.80
2023-10-19T07:44:32.871Z,8.81
2023-10-19T07:45:32.572Z,8.82
2023-10-19T07:46:32.576Z,8.84
2023-10-19T07:47:32.629Z,8.85
2023-10-19T07:48:32.614Z,8.86
2023-10-19T07:49:32.588Z,8.87
2023-10-19T07:50:32.608Z,8.88
2023-10-19T07:51:32.562Z,8.89
2023-10-19T07:52:32.500Z,8.90
2023-10-19T07:53:32.494Z,8.91
2023-10-19T07:54:32.658Z,8.92
2023-10-19T07:55:32.562Z,8.93
2023-10-19T07:56:32.456Z,8.95
2023-10-19T07:57:32.445Z,8.96
2023-10-19T07:58:32.484Z,8.98
2023-10-19T07:59:32.436Z,8.99
2023-10-19T08:00:32.458Z,9.01
2023-10-19T08:01:32.481Z,9.02
2023-10-19T08:02:32.495Z,9.04
2023-10-19T08:03:32.438Z,9.06
2023-10-19T08:04:32.720Z,9.08
2023-10-19T08:05:32.383Z,9.09
2023-10-19T08:06:32.383Z,9.11
2023-10-19T08:07:32.340Z,9.12
2023-10-19T08:08:32.310Z,9.12
2023-10-19T08:09:32.295Z,9.13
2023-10-19T08:10:32.377Z,9.14
2023-10-19T08:11:32.271Z,9.14
2023-10-19T08:12:32.262Z,9.14
2023-10-19T08:13:33.214Z,9.15
2023-10-19T08:14:32.444Z,9.16
2023-10-19T08:15:32.221Z,9.17
2023-10-19T08:16:32.261Z,9.19
2023-10-19T08:17:32.248Z,9.20
2023-10-19T08:18:32.239Z,9.20
2023-10-19T08:19:32.298Z,9.21
2023-10-19T08:20:32.895Z,9.22
2023-10-19T08:21:32.165Z,9.23
2023-10-19T08:25:17.987Z,10.39
2023-10-19T08:26:17.612Z,9.96
2023-10-19T08:27:17.521Z,9.69
2023-10-19T08:28:17.507Z,9.54
2023-10-19T08:29:17.495Z,9.46
2023-10-19T08:30:19.805Z,9.43
2023-10-19T08:31:17.535Z,9.41
2023-10-19T08:32:17.551Z,9.41
2023-10-19T08:33:17.539Z,9.41
2023-10-19T08:34:17.452Z,9.41
2023-10-19T08:35:17.557Z,9.41
2023-10-19T08:36:17.492Z,9.42
2023-10-19T08:37:17.432Z,9.43
2023-10-19T08:38:17.421Z,9.44
2023-10-19T08:39:17.419Z,9.45
2023-10-19T08:40:17.381Z,9.46
2023-10-19T08:41:17.468Z,9.48
2023-10-19T08:42:17.364Z,9.50
2023-10-19T08:43:17.350Z,9.52
2023-10-19T08:44:17.480Z,9.54
2023-10-19T08:45:17.430Z,9.54
2023-10-19T08:46:17.381Z,9.55
2023-10-19T08:47:17.323Z,9.57
2023-10-19T08:48:17.302Z,9.58
2023-10-19T08:49:17.375Z,9.60
2023-10-19T08:50:17.281Z,9.62
2023-10-19T08:51:17.318Z,9.63
2023-10-19T08:52:17.248Z,9.65
2023-10-19T08:53:17.329Z,9.67
2023-10-19T08:54:17.225Z,9.68
2023-10-19T08:55:17.217Z,9.69
2023-10-19T08:56:17.265Z,9.69
2023-10-19T08:57:17.283Z,9.70
2023-10-19T08:58:17.706Z,9.71
2023-10-19T08:59:17.170Z,9.72
2023-10-19T09:00:17.163Z,9.73
2023-10-19T09:01:17.175Z,9.75
2023-10-19T09:02:17.244Z,9.76
2023-10-19T09:03:17.227Z,9.78
2023-10-19T09:04:17.134Z,9.79
2023-10-19T09:05:17.183Z,9.81
2023-10-19T09:06:17.105Z,9.83
2023-10-19T09:07:17.098Z,9.85
2023-10-19T09:08:17.208Z,9.86
2023-10-19T09:09:17.090Z,9.87
2023-10-19T09:10:17.064Z,9.88
2023-10-19T09:11:17.038Z,9.88
2023-10-19T09:12:17.068Z,9.89
2023-10-19T09:13:17.168Z,9.89
2023-10-19T09:14:17.009Z,9.90
2023-10-19T09:15:17.060Z,9.90
2023-10-19T09:16:17.034Z,9.90
2023-10-19T09:17:17.024Z,9.91
2023-10-19T09:18:16.958Z,9.91
2023-10-19T09:19:16.945Z,9.93
2023-10-19T09:20:17.002Z,9.95
2023-10-19T09:21:16.937Z,9.96
2023-10-19T09:22:16.950Z,9.98
2023-10-19T09:23:16.922Z,9.99
2023-10-19T09:24:16.956Z,10.01
2023-10-19T09:25:16.881Z,10.02
2023-10-19T09:26:16.872Z,10.02
2023-10-19T09:27:16.877Z,10.03
2023-10-19T09:28:16.864Z,10.04
2023-10-19T09:29:16.866Z,10.05
2023-10-19T09:30:16.824Z,10.07
2023-10-19T09:31:16.987Z,10.08
2023-10-19T09:32:17.749Z,10.10
2023-10-19T09:33:16.808Z,10.11
2023-10-19T09:34:16.793Z,10.12
2023-10-19T09:36:34.724Z,11.21
2023-10-19T09:37:34.714Z,10.79
2023-10-19T09:38:34.810Z,10.52
2023-10-19T09:39:34.649Z,10.38
2023-10-19T09:40:34.712Z,10.31
2023-10-19T09:41:34.680Z,10.29
2023-10-19T09:42:34.665Z,10.27
2023-10-19T09:43:34.816Z,10.27
2023-10-19T09:44:34.655Z,10.27
2023-10-19T09:45:34.679Z,10.27
2023-10-19T09:46:34.718Z,10.27
2023-10-19T09:47:34.758Z,10.28
2023-10-19T09:48:34.832Z,10.29
2023-10-19T09:49:34.555Z,10.31
2023-10-19T09:50:34.981Z,10.34
2023-10-19T09:51:34.564Z,10.38
2023-10-19T09:52:34.589Z,10.41
2023-10-19T09:53:34.537Z,10.44
2023-10-19T09:54:34.521Z,10.46
2023-10-19T09:55:34.560Z,10.48
2023-10-19T09:56:34.509Z,10.49
2023-10-19T09:57:34.546Z,10.50
2023-10-19T09:58:34.547Z,10.51
2023-10-19T09:59:34.508Z,10.53
2023-10-19T10:00:34.457Z,10.55
2023-10-19T10:01:34.517Z,10.57
2023-10-19T10:02:34.522Z,10.59
2023-10-19T10:03:34.500Z,10.60
2023-10-19T10:04:34.776Z,10.61
2023-10-19T10:05:34.410Z,10.62
2023-10-19T10:06:34.422Z,10.63
2023-10-19T10:07:42.125Z,10.64
2023-10-19T10:08:35.456Z,10.65
2023-10-19T10:09:34.371Z,10.65
2023-10-19T10:10:34.461Z,10.66
2023-10-19T10:11:34.364Z,10.67
2023-10-19T10:12:34.416Z,10.67
2023-10-19T10:13:34.387Z,10.68
2023-10-19T10:14:34.733Z,10.69
2023-10-19T10:15:34.337Z,10.70
2023-10-19T10:16:34.471Z,10.70
2023-10-19T10:17:34.486Z,10.70
2023-10-19T10:18:34.304Z,10.70
2023-10-19T10:19:34.349Z,10.70
2023-10-19T10:20:34.284Z,10.70
2023-10-19T10:21:34.253Z,10.70
2023-10-19T10:22:34.266Z,10.70
2023-10-19T10:23:34.317Z,10.71
2023-10-19T10:24:34.236Z,10.72
2023-10-19T10:25:34.247Z,10.73
2023-10-19T10:26:34.220Z,10.73
2023-10-19T10:27:34.176Z,10.74
2023-10-19T10:28:34.245Z,10.76
2023-10-19T10:29:34.200Z,10.77
2023-10-19T10:30:34.199Z,10.79
2023-10-19T10:31:34.222Z,10.81
2023-10-19T10:32:34.197Z,10.83
2023-10-19T10:33:34.167Z,10.85
2023-10-19T10:34:34.470Z,10.86
2023-10-19T10:35:34.079Z,10.87
2023-10-19T10:36:34.104Z,10.89
2023-10-19T10:37:34.178Z,10.91
2023-10-19T10:38:34.082Z,10.93
2023-10-19T10:39:34.109Z,10.95
2023-10-19T10:40:34.054Z,10.97
2023-10-19T10:41:34.000Z,10.98
2023-10-19T10:42:34.067Z,10.99
2023-10-19T10:43:34.078Z,11.02
2023-10-19T10:44:34.016Z,11.04
2023-10-19T10:45:33.975Z,11.06
2023-10-19T10:46:34.017Z,11.07
2023-10-19T10:47:34.014Z,11.07
2023-10-19T10:48:33.999Z,11.08
2023-10-19T10:49:34.063Z,11.09
2023-10-19T10:50:33.920Z,11.12
2023-10-19T10:51:33.935Z,11.15
2023-10-19T10:52:33.968Z,11.17
2023-10-19T10:53:33.928Z,11.18
2023-10-19T10:54:33.908Z,11.18
2023-10-19T10:55:33.976Z,11.19
2023-10-19T10:56:33.895Z,11.21
2023-10-19T10:57:33.904Z,11.23
2023-10-19T10:58:33.949Z,11.26
2023-10-19T10:59:33.839Z,11.29
2023-10-19T11:00:33.813Z,11.30
2023-10-19T11:01:34.276Z,11.32
2023-10-19T11:02:33.900Z,11.34
2023-10-19T11:03:33.798Z,11.37
2023-10-19T11:04:34.098Z,11.39
2023-10-19T11:05:33.874Z,11.42
2023-10-19T11:06:33.751Z,11.44
2023-10-19T11:07:33.782Z,11.47
2023-10-19T11:08:33.829Z,11.48
2023-10-19T11:09:33.762Z,11.48
2023-10-19T11:10:33.782Z,11.49
2023-10-19T11:11:33.708Z,11.53
2023-10-19T11:12:33.677Z,11.57
2023-10-19T11:13:33.701Z,11.61
2023-10-19T11:14:33.852Z,11.63
2023-10-19T11:15:33.688Z,11.65
2023-10-19T11:16:33.744Z,11.67
2023-10-19T11:17:33.728Z,11.68
2023-10-19T11:18:33.687Z,11.69
2023-10-19T11:19:33.639Z,11.70
2023-10-19T11:20:33.621Z,11.72
2023-10-19T11:21:33.631Z,11.74
2023-10-19T11:22:33.625Z,11.76
2023-10-19T11:23:33.653Z,11.78
2023-10-19T11:24:33.891Z,11.78
2023-10-19T11:25:33.667Z,11.79
2023-10-19T11:26:33.904Z,11.79
2023-10-19T11:27:33.637Z,11.79
2023-10-19T11:28:33.533Z,11.80
2023-10-19T11:29:33.515Z,11.79
2023-10-19T11:30:33.569Z,11.79
2023-10-19T11:31:33.534Z,11.80
2023-10-19T11:32:33.527Z,11.82
2023-10-19T11:33:33.474Z,11.82
2023-10-19T11:34:33.792Z,11.81
2023-10-19T11:35:33.571Z,11.80
2023-10-19T11:36:33.511Z,11.78
2023-10-19T11:37:33.469Z,11.76
2023-10-19T11:38:33.490Z,11.75
2023-10-19T11:39:33.802Z,11.73
2023-10-19T11:40:33.501Z,11.72
2023-10-19T11:41:33.378Z,11.72
2023-10-19T11:42:33.398Z,11.73
2023-10-19T11:43:33.421Z,11.75
2023-10-19T11:44:33.530Z,11.76
2023-10-19T11:45:33.320Z,11.76
2023-10-19T11:46:33.481Z,11.76
2023-10-19T11:47:33.467Z,11.76
2023-10-19T11:48:33.324Z,11.75
2023-10-19T11:49:33.312Z,11.74
2023-10-19T11:50:33.362Z,11.74
2023-10-19T11:51:33.299Z,11.74
2023-10-19T11:52:33.475Z,11.74
2023-10-19T11:53:33.280Z,11.74
2023-10-19T11:54:33.412Z,11.76
2023-10-19T11:55:33.249Z,11.77
2023-10-19T11:56:33.351Z,11.78
2023-10-19T11:57:33.246Z,11.79
2023-10-19T11:58:33.294Z,11.80
2023-10-19T11:59:33.257Z,11.81
2023-10-19T12:00:33.199Z,11.81
2023-10-19T12:01:33.242Z,11.81
2023-10-19T12:02:33.356Z,11.82
2023-10-19T12:03:33.250Z,11.84
2023-10-19T12:04:33.539Z,11.85
2023-10-19T12:05:33.154Z,11.85
2023-10-19T12:06:33.163Z,11.86
2023-10-19T12:07:33.131Z,11.88
2023-10-19T12:08:33.117Z,11.91
2023-10-19T12:09:33.120Z,11.93
2023-10-19T12:10:33.100Z,11.94
2023-10-19T12:11:33.101Z,11.96
2023-10-19T12:12:34.281Z,11.98
2023-10-19T12:13:33.069Z,11.99
2023-10-19T12:14:33.264Z,12.00
2023-10-19T12:15:33.032Z,12.00
2023-10-19T12:16:33.070Z,12.00
2023-10-19T12:17:33.079Z,12.01
2023-10-19T12:18:32.985Z,12.02
2023-10-19T12:19:32.998Z,12.02
2023-10-19T12:20:33.030Z,12.02
2023-10-19T12:21:33.001Z,12.03
2023-10-19T12:22:33.027Z,12.02
2023-10-19T12:23:32.921Z,12.01
2023-10-19T12:24:33.198Z,12.00
2023-10-19T12:25:49.960Z,11.98
2023-10-19T12:26:34.009Z,11.97
2023-10-19T12:27:32.879Z,11.97
2023-10-19T12:28:32.985Z,12.00
2023-10-19T12:29:32.868Z,12.05
2023-10-19T12:30:33.013Z,12.09
2023-10-19T12:31:32.931Z,12.11
2023-10-19T12:32:32.873Z,12.11
2023-10-19T12:33:32.798Z,12.11
2023-10-19T12:34:33.090Z,12.09
2023-10-19T12:35:32.789Z,12.08
2023-10-19T12:36:32.924Z,12.07
2023-10-19T12:37:32.898Z,12.06
2023-10-19T12:38:32.750Z,12.05
2023-10-19T12:39:33.051Z,12.05
2023-10-19T12:40:32.801Z,12.06
2023-10-19T12:41:32.729Z,12.06
2023-10-19T12:42:32.738Z,12.08
2023-10-19T12:43:32.687Z,12.08
2023-10-19T12:44:32.786Z,12.10
2023-10-19T12:45:32.722Z,12.13
2023-10-19T12:46:32.696Z,12.17
2023-10-19T12:47:32.719Z,12.20
2023-10-19T12:48:32.684Z,12.22
2023-10-19T12:49:32.630Z,12.23
2023-10-19T12:50:32.662Z,12.22
2023-10-19T12:51:32.632Z,12.20
2023-10-19T12:52:32.610Z,12.18
2023-10-19T12:53:32.619Z,12.19
2023-10-19T12:54:32.822Z,12.23
2023-10-19T12:55:32.605Z,12.30
2023-10-19T12:56:32.584Z,12.35
2023-10-19T12:57:32.584Z,12.39
2023-10-19T12:58:32.536Z,12.41
2023-10-19T12:59:32.539Z,12.42
2023-10-19T13:00:34.069Z,12.42
2023-10-19T13:01:32.561Z,12.41
2023-10-19T13:02:32.571Z,12.41
2023-10-19T13:03:32.829Z,12.40
2023-10-19T13:04:32.735Z,12.40
2023-10-19T13:05:32.461Z,12.40
2023-10-19T13:06:32.508Z,12.40
2023-10-19T13:07:32.515Z,12.40
2023-10-19T13:08:32.462Z,12.40
2023-10-19T13:09:32.445Z,12.40
2023-10-19T13:10:32.416Z,12.39
2023-10-19T13:11:32.545Z,12.40
2023-10-19T13:12:32.449Z,12.43
2023-10-19T13:13:32.379Z,12.46
2023-10-19T13:14:32.575Z,12.49